Hellas — J8B3126 — position and weather

sailwx.info

Track history (hours):
 
Tides and Currents Weather Stations Pressure Air Temp Water Temp Dewpoint Dewpoint Depression Visibility Wind Speed Wind Dir Waves Ship Positions

Hellas

Last reported at 2014-Jul-29 08:29 UTC. Time now 2014-Jul-29 08:51 UTC.
Position N 36°55' E 012°37'.

Length 50 m; draft 4.4 m.

Type: Tow > 200 m length. MMSI: 375113000.

Date/timePositionNaut miles runAvg speedWind from/ knotsBaromVisibWave heightAir tempDewpointWater temp
2014-Jul-29 08:29N 36°55' E 012°37'8 8.9
2014-Jul-29 07:33N 36°53' E 012°47'9 8.6
2014-Jul-29 06:29N 36°50' E 012°58'8 8.7
2014-Jul-29 05:33N 36°47' E 013°08'8 8.4
2014-Jul-29 04:34N 36°45' E 013°18'8 8.3
2014-Jul-29 03:34N 36°42' E 013°28'9 8.4
2014-Jul-29 02:29N 36°39' E 013°38'8 8.2
2014-Jul-29 01:34N 36°37' E 013°47'10 8.4
2014-Jul-29 00:25N 36°34' E 013°58'8 8.6
2014-Jul-28 23:30N 36°31' E 014°08'9 8.6
2014-Jul-28 22:29N 36°28' E 014°18'9 8.5
2014-Jul-28 21:24N 36°26' E 014°29'7 8.0
2014-Jul-28 20:33N 36°25' E 014°37'10 7.5
2014-Jul-28 19:17N 36°25' E 014°49'8 7.4
2014-Jul-28 18:10N 36°25' E 014°60'6 7.6
2014-Jul-28 17:24N 36°25' E 015°07'  
2014-Jul-26 10:08N 37°02' E 023°51'24 9.0
2014-Jul-26 07:30N 37°21' E 024°09'10 8.9
2014-Jul-26 06:23N 37°29' E 024°17'7 8.8
2014-Jul-26 05:33N 37°34' E 024°23'108 8.8
2014-Jul-25 17:20N 39°15' E 025°14'182 8.2
2014-Jul-24 19:07N 40°45' E 028°40'5 8.9
2014-Jul-24 18:33N 40°45' E 028°47'9 8.6
2014-Jul-24 17:28N 40°45' E 028°59'8 8.3
2014-Jul-24 16:29N 40°44' E 029°10'8 8.0
2014-Jul-24 15:32N 40°44' E 029°20'7 7.1
2014-Jul-24 14:33N 40°45' E 029°29'1 0.6
2014-Jul-24 13:30N 40°44' E 029°29'1 0.0
2014-Jul-23 15:07N 40°44' E 029°30'  
2014-Jul-19 10:31N 40°44' E 029°30'  
Track history (hours):
 
Tides and Currents Weather Stations Pressure Air Temp Water Temp Dewpoint Dewpoint Depression Visibility Wind Speed Wind Dir Waves Ship Positions

Hellas

Last reported at 2014-Jul-29 08:29 UTC. Time now 2014-Jul-29 08:51 UTC.
Position N 36°55' E 012°37'.

Length 50 m; draft 4.4 m.

Type: Tow > 200 m length. MMSI: 375113000.

Date/timePositionNaut miles runAvg speedWind from/ knotsBaromVisibWave heightAir tempDewpointWater temp
2014-Jul-29 08:29N 36°55' E 012°37'8 8.9
2014-Jul-29 07:33N 36°53' E 012°47'9 8.6
2014-Jul-29 06:29N 36°50' E 012°58'8 8.7
2014-Jul-29 05:33N 36°47' E 013°08'8 8.4
2014-Jul-29 04:34N 36°45' E 013°18'8 8.3
2014-Jul-29 03:34N 36°42' E 013°28'9 8.4
2014-Jul-29 02:29N 36°39' E 013°38'8 8.2
2014-Jul-29 01:34N 36°37' E 013°47'10 8.4
2014-Jul-29 00:25N 36°34' E 013°58'8 8.6
2014-Jul-28 23:30N 36°31' E 014°08'9 8.6
2014-Jul-28 22:29N 36°28' E 014°18'9 8.5
2014-Jul-28 21:24N 36°26' E 014°29'7 8.0
2014-Jul-28 20:33N 36°25' E 014°37'10 7.5
2014-Jul-28 19:17N 36°25' E 014°49'8 7.4
2014-Jul-28 18:10N 36°25' E 014°60'6 7.6
2014-Jul-28 17:24N 36°25' E 015°07'  
2014-Jul-26 10:08N 37°02' E 023°51'24 9.0
2014-Jul-26 07:30N 37°21' E 024°09'10 8.9
2014-Jul-26 06:23N 37°29' E 024°17'7 8.8
2014-Jul-26 05:33N 37°34' E 024°23'108 8.8
2014-Jul-25 17:20N 39°15' E 025°14'182 8.2
2014-Jul-24 19:07N 40°45' E 028°40'5 8.9
2014-Jul-24 18:33N 40°45' E 028°47'9 8.6
2014-Jul-24 17:28N 40°45' E 028°59'8 8.3
2014-Jul-24 16:29N 40°44' E 029°10'8 8.0
2014-Jul-24 15:32N 40°44' E 029°20'7 7.1
2014-Jul-24 14:33N 40°45' E 029°29'1 0.6
2014-Jul-24 13:30N 40°44' E 029°29'1 0.0
2014-Jul-23 15:07N 40°44' E 029°30'  
2014-Jul-19 10:31N 40°44' E 029°30'  

Dump ship's entire track history